createdAt,value
2024-02-08T00:00:01.761Z,77.01
2024-02-08T00:02:34.920Z,76.50
2024-02-08T00:05:04.070Z,76.60
2024-02-08T00:07:32.246Z,76.60
2024-02-08T00:10:00.370Z,76.17
2024-02-08T00:12:28.358Z,75.56
2024-02-08T00:14:56.341Z,76.44
2024-02-08T00:17:24.307Z,75.98
2024-02-08T00:19:52.537Z,76.01
2024-02-08T00:22:23.655Z,76.08
2024-02-08T00:24:55.258Z,76.04
2024-02-08T00:27:23.652Z,76.00
2024-02-08T00:29:51.710Z,75.97
2024-02-08T00:32:20.702Z,75.87
2024-02-08T00:34:50.219Z,76.09
2024-02-08T00:37:18.379Z,76.34
2024-02-08T00:39:47.540Z,77.32
2024-02-08T00:42:15.661Z,77.02
2024-02-08T00:44:43.787Z,77.11
2024-02-08T00:47:12.647Z,76.91
2024-02-08T00:49:41.428Z,76.76
2024-02-08T00:52:10.398Z,78.45
2024-02-08T00:54:38.499Z,77.80
2024-02-08T00:57:11.927Z,77.19
2024-02-08T00:59:40.467Z,77.75
2024-02-08T01:02:10.846Z,77.81
2024-02-08T01:04:39.465Z,77.51
2024-02-08T01:07:07.582Z,78.87
2024-02-08T01:09:35.627Z,78.42
2024-02-08T01:12:03.751Z,78.94
2024-02-08T01:14:31.949Z,78.95
2024-02-08T01:17:00.297Z,78.38
2024-02-08T01:19:28.358Z,78.21
2024-02-08T01:21:59.250Z,78.38
2024-02-08T01:24:30.183Z,78.31
2024-02-08T01:26:58.158Z,77.93
2024-02-08T01:29:27.688Z,77.56
2024-02-08T01:31:55.830Z,77.50
2024-02-08T01:34:27.146Z,77.71
2024-02-08T01:36:55.628Z,77.75
2024-02-08T01:39:26.357Z,77.84
2024-02-08T01:41:54.578Z,77.48
2024-02-08T01:44:22.978Z,77.19
2024-02-08T01:46:51.904Z,77.49
2024-02-08T01:49:29.274Z,77.31
2024-02-08T01:52:02.186Z,77.28
2024-02-08T01:54:31.795Z,76.45
2024-02-08T01:57:00.204Z,76.58
2024-02-08T01:59:33.197Z,77.43
2024-02-08T02:02:03.282Z,78.15
2024-02-08T02:04:35.770Z,78.13
2024-02-08T02:07:05.261Z,77.55
2024-02-08T02:09:33.733Z,77.99
2024-02-08T02:12:06.124Z,78.87
2024-02-08T02:14:36.763Z,78.84
2024-02-08T02:17:13.217Z,79.05
2024-02-08T02:19:42.384Z,80.38
2024-02-08T02:22:12.581Z,79.37
2024-02-08T02:24:41.928Z,78.98
2024-02-08T02:27:12.602Z,78.12
2024-02-08T02:29:41.600Z,78.89
2024-02-08T02:32:22.736Z,78.33
2024-02-08T02:34:55.005Z,78.93
2024-02-08T02:37:24.214Z,78.18
2024-02-08T02:39:54.422Z,77.89
2024-02-08T02:42:22.886Z,78.13
2024-02-08T02:44:50.839Z,77.70
2024-02-08T02:47:27.311Z,78.50
2024-02-08T02:49:56.626Z,78.80
2024-02-08T02:52:24.749Z,78.34
2024-02-08T02:54:53.407Z,78.74
2024-02-08T02:57:21.535Z,78.61
2024-02-08T03:01:51.229Z,79.69
2024-02-08T03:04:19.769Z,80.13
2024-02-08T03:06:49.317Z,80.52
2024-02-08T03:09:18.973Z,80.20
2024-02-08T03:11:47.115Z,80.59
2024-02-08T03:14:19.859Z,80.53
2024-02-08T03:16:47.918Z,79.83
2024-02-08T03:19:17.445Z,79.48
2024-02-08T03:21:46.585Z,79.79
2024-02-08T03:24:15.064Z,80.79
2024-02-08T03:26:46.283Z,81.61
2024-02-08T03:29:17.708Z,80.79
2024-02-08T03:31:47.727Z,81.99
2024-02-08T03:34:31.806Z,81.10
2024-02-08T03:37:01.347Z,81.71
2024-02-08T03:39:29.437Z,82.64
2024-02-08T03:42:06.025Z,82.33
2024-02-08T03:44:35.912Z,83.14
2024-02-08T03:47:10.318Z,82.52
2024-02-08T03:49:39.687Z,84.63
2024-02-08T03:52:10.892Z,84.53
2024-02-08T03:54:40.072Z,83.50
2024-02-08T03:57:09.161Z,83.62
2024-02-08T03:59:42.469Z,84.17
2024-02-08T04:02:11.557Z,83.38
2024-02-08T04:05:00.007Z,83.11
2024-02-08T04:07:46.849Z,83.42
2024-02-08T04:10:31.363Z,83.92
2024-02-08T04:13:17.988Z,83.57
2024-02-08T04:16:06.639Z,83.25
2024-02-08T04:18:53.755Z,82.32
2024-02-08T04:21:40.522Z,81.08
2024-02-08T04:24:27.274Z,82.06
2024-02-08T04:27:13.841Z,81.54
2024-02-08T04:30:00.387Z,80.64
2024-02-08T04:32:46.830Z,82.15
2024-02-08T04:35:34.991Z,82.42
2024-02-08T04:38:22.281Z,82.02
2024-02-08T04:41:08.681Z,81.55
2024-02-08T04:43:55.573Z,81.88
2024-02-08T04:46:44.440Z,81.70
2024-02-08T04:49:33.729Z,80.65
2024-02-08T04:52:20.507Z,80.72
2024-02-08T04:54:48.611Z,80.81
2024-02-08T04:57:16.608Z,80.63
2024-02-08T04:59:46.931Z,80.57
2024-02-08T05:02:15.852Z,81.06
2024-02-08T05:04:44.782Z,80.87
2024-02-08T05:07:13.059Z,80.66
2024-02-08T05:09:41.643Z,80.64
2024-02-08T05:12:12.639Z,81.11
2024-02-08T05:14:40.887Z,81.06
2024-02-08T05:17:11.004Z,80.66
2024-02-08T05:19:45.954Z,80.76
2024-02-08T05:22:15.308Z,80.86
2024-02-08T05:24:43.496Z,80.74
2024-02-08T05:27:12.994Z,81.02
2024-02-08T05:29:43.175Z,81.23
2024-02-08T05:32:12.013Z,81.28
2024-02-08T05:34:41.185Z,82.10
2024-02-08T05:37:09.675Z,81.46
2024-02-08T05:39:38.310Z,82.48
2024-02-08T05:42:07.285Z,81.93
2024-02-08T05:44:41.883Z,81.55
2024-02-08T05:47:11.640Z,81.57
2024-02-08T05:49:51.110Z,84.09
2024-02-08T05:52:19.784Z,83.20
2024-02-08T05:54:48.529Z,82.32
2024-02-08T05:57:16.508Z,82.50
2024-02-08T05:59:46.795Z,82.15
2024-02-08T06:02:17.215Z,81.37
2024-02-08T06:04:54.043Z,80.52
2024-02-08T06:07:22.908Z,80.35
2024-02-08T06:10:09.735Z,80.12
2024-02-08T06:12:59.283Z,82.17
2024-02-08T06:15:34.861Z,81.61
2024-02-08T06:18:06.828Z,82.69
2024-02-08T06:20:42.108Z,81.87
2024-02-08T06:23:24.769Z,81.04
2024-02-08T06:26:25.644Z,82.24
2024-02-08T06:28:56.510Z,81.95
2024-02-08T06:31:35.053Z,81.86
2024-02-08T06:34:19.330Z,81.75
2024-02-08T06:37:00.796Z,82.60
2024-02-08T06:39:46.078Z,82.63
2024-02-08T06:42:33.918Z,82.30
2024-02-08T06:45:20.251Z,82.39
2024-02-08T06:48:00.356Z,81.57
2024-02-08T06:50:47.607Z,82.06
2024-02-08T06:53:53.931Z,82.81
2024-02-08T06:56:40.131Z,83.06
2024-02-08T06:59:26.504Z,83.35
2024-02-08T07:02:13.460Z,83.25
2024-02-08T07:04:59.736Z,84.03
2024-02-08T07:07:46.452Z,83.38
2024-02-08T07:10:33.679Z,82.55
2024-02-08T07:13:20.149Z,82.55
2024-02-08T07:16:06.723Z,81.85
2024-02-08T07:18:58.496Z,82.27
2024-02-08T07:21:52.125Z,81.32
2024-02-08T07:24:38.594Z,81.03
2024-02-08T07:27:25.099Z,81.22
2024-02-08T07:30:11.855Z,80.84
2024-02-08T07:32:58.679Z,81.74
2024-02-08T07:35:45.385Z,81.11
2024-02-08T07:38:16.115Z,81.07
2024-02-08T07:40:45.390Z,79.65
2024-02-08T07:43:17.084Z,78.96
2024-02-08T07:45:48.043Z,77.40
2024-02-08T07:48:50.205Z,74.67
2024-02-08T07:51:18.379Z,70.19
2024-02-08T07:53:47.308Z,66.49
2024-02-08T07:56:25.099Z,61.54
2024-02-08T07:58:58.278Z,59.09
2024-02-08T08:01:31.658Z,58.50
2024-02-08T08:04:03.198Z,60.21
2024-02-08T08:06:48.506Z,59.52
2024-02-08T08:09:20.997Z,60.42
2024-02-08T08:11:50.385Z,60.64
2024-02-08T08:14:33.937Z,60.95
2024-02-08T08:17:28.462Z,61.02
2024-02-08T08:19:58.623Z,58.96
2024-02-08T08:22:26.740Z,57.54
2024-02-08T08:25:15.410Z,55.17
2024-02-08T08:27:52.472Z,54.46
2024-02-08T08:30:32.762Z,55.19
2024-02-08T08:33:02.734Z,54.00
2024-02-08T08:36:01.372Z,53.75
2024-02-08T08:38:30.355Z,52.05
2024-02-08T08:41:16.899Z,51.29
2024-02-08T08:43:55.152Z,51.85
2024-02-08T08:46:25.818Z,50.88
2024-02-08T08:48:56.906Z,49.89
2024-02-08T08:51:32.432Z,49.66
2024-02-08T08:54:16.226Z,48.27
2024-02-08T08:56:44.536Z,49.52
2024-02-08T08:59:12.870Z,46.84
2024-02-08T09:01:42.459Z,46.28
2024-02-08T09:04:12.225Z,44.15
2024-02-08T09:06:49.308Z,43.54
2024-02-08T09:09:29.836Z,42.77
2024-02-08T09:12:01.262Z,42.98
2024-02-08T09:14:32.393Z,40.88
2024-02-08T09:17:23.495Z,40.41
2024-02-08T09:19:49.810Z,37.98
2024-02-08T09:22:21.202Z,38.09
2024-02-08T09:24:50.527Z,36.31
2024-02-08T09:27:21.147Z,33.54
2024-02-08T09:29:57.835Z,32.96
2024-02-08T09:32:45.132Z,30.86
2024-02-08T09:35:14.878Z,27.78
2024-02-08T09:37:48.019Z,28.44
2024-02-08T09:40:29.875Z,26.00
2024-02-08T09:43:18.958Z,23.38
2024-02-08T09:46:07.533Z,24.40
2024-02-08T09:48:53.609Z,23.52
2024-02-08T09:51:27.179Z,23.52
2024-02-08T09:53:55.905Z,23.18
2024-02-08T09:56:27.288Z,22.62
2024-02-08T09:59:10.356Z,21.58
2024-02-08T10:01:46.653Z,20.39
2024-02-08T10:04:21.030Z,20.32
2024-02-08T10:06:57.512Z,19.61
2024-02-08T10:09:38.335Z,20.51
2024-02-08T10:12:12.378Z,19.24
2024-02-08T10:14:46.241Z,17.38
2024-02-08T10:17:43.324Z,18.67
2024-02-08T10:20:23.910Z,18.51
2024-02-08T10:22:58.990Z,19.09
2024-02-08T10:25:49.327Z,17.80
2024-02-08T10:28:24.571Z,17.64
2024-02-08T10:31:07.899Z,18.44
2024-02-08T10:33:40.258Z,18.79
2024-02-08T10:36:12.433Z,19.94
2024-02-08T10:39:04.174Z,20.16
2024-02-08T10:41:59.777Z,20.67
2024-02-08T10:44:31.263Z,21.09
2024-02-08T10:47:10.906Z,20.96
2024-02-08T10:49:44.392Z,20.08
2024-02-08T10:52:14.418Z,20.23
2024-02-08T10:54:55.100Z,18.72
2024-02-08T10:57:55.486Z,18.72
2024-02-08T11:00:42.913Z,19.48
2024-02-08T11:03:35.769Z,20.55
2024-02-08T11:06:06.155Z,22.09
2024-02-08T11:08:35.098Z,22.18
2024-02-08T11:11:13.798Z,22.76
2024-02-08T11:13:46.252Z,21.75
2024-02-08T11:16:23.803Z,21.27
2024-02-08T11:18:54.810Z,20.96
2024-02-08T11:21:47.600Z,20.63
2024-02-08T11:24:40.256Z,19.86
2024-02-08T11:27:08.395Z,19.91
2024-02-08T11:29:47.281Z,21.00
2024-02-08T11:32:19.274Z,20.42
2024-02-08T11:34:48.657Z,22.20
2024-02-08T11:37:20.819Z,21.63
2024-02-08T11:40:01.971Z,19.63
2024-02-08T11:42:38.382Z,18.44
2024-02-08T11:45:10.793Z,19.34
2024-02-08T11:47:43.546Z,19.56
2024-02-08T11:50:22.424Z,19.35
2024-02-08T11:53:00.104Z,18.62
2024-02-08T11:55:30.364Z,19.11
2024-02-08T11:57:58.934Z,18.98
2024-02-08T12:00:27.583Z,19.55
2024-02-08T12:02:59.291Z,20.60
2024-02-08T12:05:30.530Z,20.64
2024-02-08T12:08:13.360Z,20.74
2024-02-08T12:10:44.432Z,20.55
2024-02-08T12:13:15.560Z,21.70
2024-02-08T12:15:57.803Z,21.74
2024-02-08T12:18:30.165Z,23.31
2024-02-08T12:21:03.523Z,22.94
2024-02-08T12:23:32.908Z,25.01
2024-02-08T12:26:04.820Z,24.78
2024-02-08T12:28:39.401Z,25.19
2024-02-08T12:31:18.589Z,23.78
2024-02-08T12:33:53.635Z,24.73
2024-02-08T12:36:24.980Z,25.22
2024-02-08T12:38:56.587Z,26.14
2024-02-08T12:41:25.494Z,25.90
2024-02-08T12:43:54.398Z,25.65
2024-02-08T12:46:23.201Z,26.69
2024-02-08T12:48:51.928Z,26.68
2024-02-08T12:51:21.259Z,26.11
2024-02-08T12:53:56.592Z,26.59
2024-02-08T12:56:24.766Z,26.15
2024-02-08T12:59:05.732Z,27.73
2024-02-08T13:01:43.152Z,27.28
2024-02-08T13:04:28.482Z,26.76
2024-02-08T13:06:57.662Z,26.69
2024-02-08T13:09:30.586Z,26.63
2024-02-08T13:12:16.596Z,27.38
2024-02-08T13:14:58.623Z,26.70
2024-02-08T13:17:27.651Z,27.40
2024-02-08T13:19:57.408Z,26.41
2024-02-08T13:22:32.927Z,28.17
2024-02-08T13:25:01.422Z,26.92
2024-02-08T13:27:32.605Z,27.48
2024-02-08T13:30:01.317Z,27.36
2024-02-08T13:32:32.015Z,27.41
2024-02-08T13:35:03.886Z,27.50
2024-02-08T13:37:32.886Z,28.14
2024-02-08T13:40:06.670Z,28.29
2024-02-08T13:42:47.725Z,27.06
2024-02-08T13:45:27.508Z,27.33
2024-02-08T13:47:59.602Z,27.46
2024-02-08T13:50:33.389Z,27.43
2024-02-08T13:53:04.307Z,27.28
2024-02-08T13:58:08.709Z,27.72
2024-02-08T14:00:37.408Z,26.83
2024-02-08T14:03:06.030Z,26.87
2024-02-08T14:05:40.795Z,26.64
2024-02-08T14:08:19.130Z,26.98
2024-02-08T14:10:47.698Z,28.40
2024-02-08T14:13:18.335Z,26.92
2024-02-08T14:15:50.136Z,28.89
2024-02-08T14:18:29.018Z,29.69
2024-02-08T14:21:03.405Z,30.53
2024-02-08T14:23:32.366Z,30.51
2024-02-08T14:26:31.118Z,29.82
2024-02-08T14:29:01.003Z,30.45
2024-02-08T14:31:29.261Z,31.27
2024-02-08T14:33:57.211Z,32.25
2024-02-08T14:36:25.568Z,31.75
2024-02-08T14:38:55.038Z,33.16
2024-02-08T14:41:35.999Z,33.44
2024-02-08T14:44:08.304Z,33.47
2024-02-08T14:46:42.087Z,33.46
2024-02-08T14:49:28.783Z,33.92
2024-02-08T14:52:16.904Z,33.61
2024-02-08T14:54:45.349Z,32.30
2024-02-08T14:57:20.959Z,32.87
2024-02-08T14:59:53.747Z,32.55
2024-02-08T15:02:24.578Z,33.58
2024-02-08T15:05:02.413Z,33.29
2024-02-08T15:08:10.299Z,33.98
2024-02-08T15:10:44.762Z,33.78
2024-02-08T15:13:20.670Z,36.17
2024-02-08T15:15:51.910Z,35.83
2024-02-08T15:18:31.783Z,35.93
2024-02-08T15:21:00.117Z,37.02
2024-02-08T15:23:35.759Z,37.32
2024-02-08T15:26:05.204Z,38.00
2024-02-08T15:28:35.814Z,37.21
2024-02-08T15:31:17.979Z,38.40
2024-02-08T15:34:05.022Z,39.65
2024-02-08T15:36:49.839Z,39.99
2024-02-08T15:39:37.790Z,40.39
2024-02-08T15:42:27.382Z,40.72
2024-02-08T15:45:00.280Z,41.23
2024-02-08T15:47:30.372Z,41.36
2024-02-08T15:49:59.961Z,41.30
2024-02-08T15:52:35.928Z,42.62
2024-02-08T15:55:17.352Z,43.03
2024-02-08T15:57:56.062Z,42.77
2024-02-08T16:00:56.906Z,43.60
2024-02-08T16:03:28.042Z,44.07
2024-02-08T16:06:01.810Z,44.26
2024-02-08T16:08:37.262Z,44.64
2024-02-08T16:11:20.856Z,45.23
2024-02-08T16:13:54.898Z,45.73
2024-02-08T16:16:25.848Z,45.44
2024-02-08T16:19:01.277Z,45.07
2024-02-08T16:21:33.102Z,44.85
2024-02-08T16:24:15.156Z,45.06
2024-02-08T16:26:50.953Z,45.26
2024-02-08T16:29:21.902Z,44.68
2024-02-08T16:31:56.427Z,44.84
2024-02-08T16:34:26.241Z,44.90
2024-02-08T16:36:54.926Z,45.71
2024-02-08T16:39:31.535Z,45.90
2024-02-08T16:42:00.112Z,46.15
2024-02-08T16:44:32.326Z,46.40
2024-02-08T16:47:07.263Z,47.13
2024-02-08T16:49:42.371Z,47.60
2024-02-08T16:52:23.718Z,48.03
2024-02-08T16:55:01.737Z,48.05
2024-02-08T16:57:33.424Z,47.98
2024-02-08T17:00:20.123Z,48.27
2024-02-08T17:03:06.415Z,48.23
2024-02-08T17:05:55.537Z,48.42
2024-02-08T17:08:31.397Z,49.66
2024-02-08T17:11:03.193Z,51.28
2024-02-08T17:13:46.092Z,51.46
2024-02-08T17:16:36.993Z,51.12
2024-02-08T17:19:31.614Z,50.58
2024-02-08T17:22:18.552Z,51.96
2024-02-08T17:25:06.701Z,51.60
2024-02-08T17:27:34.967Z,52.50
2024-02-08T17:30:07.312Z,51.96
2024-02-08T17:32:36.110Z,52.71
2024-02-08T17:35:05.244Z,52.30
2024-02-08T17:37:39.663Z,50.77
2024-02-08T17:40:21.165Z,50.30
2024-02-08T17:43:00.493Z,51.77
2024-02-08T17:45:49.513Z,52.26
2024-02-08T17:48:21.842Z,52.73
2024-02-08T17:50:52.960Z,51.91
2024-02-08T17:53:25.379Z,51.48
2024-02-08T17:56:08.763Z,51.37
2024-02-08T17:58:37.977Z,51.91
2024-02-08T18:01:08.888Z,51.43
2024-02-08T18:03:37.627Z,52.87
2024-02-08T18:06:07.660Z,53.23
2024-02-08T18:08:40.374Z,53.29
2024-02-08T18:11:11.986Z,54.06
2024-02-08T18:13:40.336Z,54.04
2024-02-08T18:16:11.796Z,53.68
2024-02-08T18:18:41.959Z,54.15
2024-02-08T18:21:15.663Z,54.24
2024-02-08T18:23:47.773Z,53.30
2024-02-08T18:26:29.344Z,53.29
2024-02-08T18:29:05.291Z,53.60
2024-02-08T18:31:34.477Z,54.25
2024-02-08T18:34:03.675Z,55.26
2024-02-08T18:36:32.497Z,55.35
2024-02-08T18:39:01.113Z,55.75
2024-02-08T18:41:30.355Z,56.05
2024-02-08T18:43:59.437Z,55.30
2024-02-08T18:46:29.546Z,54.89
2024-02-08T18:49:02.889Z,56.65
2024-02-08T18:51:32.134Z,56.22
2024-02-08T18:54:01.050Z,56.22
2024-02-08T18:56:32.954Z,56.49
2024-02-08T18:59:06.664Z,57.51
2024-02-08T19:01:44.615Z,57.99
2024-02-08T19:04:21.247Z,57.81
2024-02-08T19:06:52.557Z,58.03
2024-02-08T19:09:21.177Z,58.08
2024-02-08T19:11:50.975Z,59.14
2024-02-08T19:14:23.271Z,57.85
2024-02-08T19:16:52.096Z,57.92
2024-02-08T19:19:24.841Z,58.38
2024-02-08T19:21:54.978Z,57.70
2024-02-08T19:24:23.982Z,57.84
2024-02-08T19:26:52.461Z,57.92
2024-02-08T19:29:25.894Z,59.06
2024-02-08T19:31:54.700Z,57.80
2024-02-08T19:34:23.491Z,58.30
2024-02-08T19:37:00.039Z,58.77
2024-02-08T19:39:28.383Z,59.07
2024-02-08T19:42:25.379Z,59.03
2024-02-08T19:44:55.035Z,59.78
2024-02-08T19:47:29.332Z,60.77
2024-02-08T19:50:04.324Z,60.84
2024-02-08T19:52:41.614Z,59.76
2024-02-08T19:55:23.254Z,60.20
2024-02-08T19:57:54.849Z,60.41
2024-02-08T20:00:23.742Z,61.19
2024-02-08T20:02:54.303Z,61.13
2024-02-08T20:05:25.674Z,61.99
2024-02-08T20:07:54.513Z,62.34
2024-02-08T20:10:24.398Z,62.09
2024-02-08T20:12:55.873Z,62.00
2024-02-08T20:15:29.838Z,61.80
2024-02-08T20:18:00.749Z,62.19
2024-02-08T20:20:29.857Z,61.96
2024-02-08T20:23:01.283Z,61.64
2024-02-08T20:25:35.141Z,62.95
2024-02-08T20:28:08.072Z,64.39
2024-02-08T20:30:40.108Z,64.52
2024-02-08T20:33:14.959Z,64.41
2024-02-08T20:35:44.483Z,64.96
2024-02-08T20:38:16.481Z,64.46
2024-02-08T20:40:45.659Z,64.01
2024-02-08T20:43:19.317Z,63.49
2024-02-08T20:45:50.778Z,63.92
2024-02-08T20:48:23.570Z,63.57
2024-02-08T20:50:52.547Z,63.58
2024-02-08T20:53:21.033Z,65.90
2024-02-08T20:55:49.913Z,66.14
2024-02-08T20:58:20.956Z,65.99
2024-02-08T21:00:54.652Z,65.93
2024-02-08T21:03:28.268Z,65.55
2024-02-08T21:05:59.785Z,65.73
2024-02-08T21:08:29.480Z,65.72
2024-02-08T21:10:58.504Z,65.80
2024-02-08T21:13:27.194Z,65.94
2024-02-08T21:15:56.280Z,65.65
2024-02-08T21:18:24.396Z,65.08
2024-02-08T21:20:52.660Z,65.79
2024-02-08T21:23:20.975Z,66.67
2024-02-08T21:25:57.952Z,66.88
2024-02-08T21:28:30.881Z,66.61
2024-02-08T21:30:59.027Z,66.88
2024-02-08T21:33:33.102Z,66.72
2024-02-08T21:36:05.513Z,65.78
2024-02-08T21:38:36.350Z,66.65
2024-02-08T21:41:05.104Z,66.47
2024-02-08T21:43:34.923Z,65.26
2024-02-08T21:46:05.431Z,65.94
2024-02-08T21:48:34.059Z,66.47
2024-02-08T21:51:02.482Z,66.01
2024-02-08T21:53:30.448Z,65.95
2024-02-08T21:55:58.418Z,65.67
2024-02-08T21:58:26.588Z,67.16
2024-02-08T22:03:40.477Z,68.17
2024-02-08T22:06:08.598Z,67.25
2024-02-08T22:08:37.839Z,66.39
2024-02-08T22:11:09.306Z,66.91
2024-02-08T22:13:37.321Z,66.96
2024-02-08T22:16:09.412Z,67.16
2024-02-08T22:18:37.569Z,67.51
2024-02-08T22:21:07.529Z,66.75
2024-02-08T22:23:38.081Z,66.40
2024-02-08T22:26:08.330Z,67.50
2024-02-08T22:28:40.544Z,68.55
2024-02-08T22:31:12.525Z,68.58
2024-02-08T22:33:40.796Z,68.53
2024-02-08T22:36:08.734Z,68.32
2024-02-08T22:38:38.753Z,67.96
2024-02-08T22:41:06.715Z,67.71
2024-02-08T22:43:34.702Z,67.49
2024-02-08T22:46:02.785Z,67.68
2024-02-08T22:48:30.914Z,68.46
2024-02-08T22:50:59.961Z,68.36
2024-02-08T22:53:28.235Z,68.94
2024-02-08T22:55:56.225Z,69.82
2024-02-08T22:58:25.518Z,69.69
2024-02-08T23:01:02.209Z,69.69
2024-02-08T23:03:30.417Z,68.51
2024-02-08T23:06:00.011Z,68.97
2024-02-08T23:08:28.196Z,69.82
2024-02-08T23:10:56.174Z,70.39
2024-02-08T23:13:24.175Z,69.30
2024-02-08T23:15:54.048Z,71.01
2024-02-08T23:18:23.719Z,70.89
2024-02-08T23:20:55.026Z,69.19
2024-02-08T23:23:23.161Z,70.21
2024-02-08T23:25:51.130Z,70.24
2024-02-08T23:28:21.701Z,69.34
2024-02-08T23:30:51.658Z,68.76
2024-02-08T23:33:24.325Z,69.35
2024-02-08T23:35:53.322Z,69.21
2024-02-08T23:38:22.083Z,69.56
2024-02-08T23:40:50.274Z,70.12
2024-02-08T23:43:18.463Z,69.04
2024-02-08T23:45:47.272Z,68.73
2024-02-08T23:48:16.153Z,69.60
2024-02-08T23:50:47.739Z,69.12
2024-02-08T23:53:16.501Z,68.99
2024-02-08T23:55:44.607Z,69.45
2024-02-08T23:58:16.019Z,69.64
